Petersburg, AK

1:05 PM AKDT on August 31, 2015 (GMT -0800)
Johnson Petersburg | | Change Station
CLOSE
Current Station
Airport
Location: Petersburg,
Elevation: 0 ft
Nearby Weather Stations

Elev 0 ft 56.82 °N, 132.97 °W | Updated 9 minutes ago

Mostly Cloudy
Mostly Cloudy
52 °F
Feels Like 52 °F
N
0
Wind Variable Wind from North

Today
High -- | Low -- °F
--% Chance of Precip.
Yesterday
High -- | Low -- °F
Precip. -- in
5:53 AM 7:52 PM
Waning Gibbous, 93% visible
Pressure 29.50 in
Visibility 10.0 miles
Clouds Few 700 ft
Mostly Cloudy 2800 ft
Mostly Cloudy 4300 ft
Dew Point 45 °F
Humidity 76%
Rainfall 0.27 in
Snow Depth Not available.
UV 3 out of 12
Pollen Not available.
Air Quality Not available.
Flu Activity Not available.
METAR PAPG 312056Z 00000KT 10SM FEW007 BKN028 BKN043 11/07 A2950 RMK AO1 -SHRA P0001 60013 52014
Pressure 29.50 in
Visibility 10.0 miles
Clouds Few 700 ft
Mostly Cloudy 2800 ft
Mostly Cloudy 4300 ft
Dew Point 45 °F
Humidity 76%
Rainfall 0.27 in
Snow Depth Not available.
UV 3 out of 12
Pollen Not available.
Air Quality Not available.
Flu Activity Not available.
METAR PAPG 312056Z 00000KT 10SM FEW007 BKN028 BKN043 11/07 A2950 RMK AO1 -SHRA P0001 60013 52014

10-Day Weather Forecast

×

Almanac

Astronomy

Aug. 31, 2015 Rise Set
Actual Time
Civil Twilight
Nautical Twilight
Astronomical Twilight
Moon
Length of Visible Light
Length of Day
Tomorrow will be .
, % of the Moon is Illuminated

Today's Extremes

State Highs State Lows

Community

WunderPhotos

Upload Photos

1,851,366 photos uploaded!

WunderBlogs® & News

Nearby

Air Quality

  Air Quality AQ Index Pollutant
Not available.

Snow Depth

Station Depth Elevation

Earthquake Activity

City Distance Mag. Time & Date
Minimum magnitude displayed is 2.5.

Coastal Water Temperatures

Place Temperature

Stations

Nearby Weather Stations

Station Location Temp. Windchill Dew Point Humidity Wind Precip. Elev Updated Type